Terminal Aerodrome Forecast
Issued by NWS

Home | Current Version | Previous Version | Text Only | Print | Product List | Glossary On
Versions: 1 2 3 4 5 6 7 8 9 10 11 12
000
FTUS44 KTSA 141724
TAFXNA
TAF
KXNA 141724Z 1418/1518 01008KT P6SM SCT040 BKN150
     FM150100 VRB03KT P6SM BKN040
     FM151300 35008KT P6SM BKN150=

USA.gov is the U.S. government's official web portal to all federal, state and local government web resources and services.